Time;durP1;ratioP1;P1;durP2;ratioP2;P2;SDS_P1;SDS_P2;PMS_P1;PMS_P2;Temp;Humidity;BMP_temperature;BMP_pressure;BME280_temperature;BME280_humidity;BME280_pressure;Samples;Min_cycle;Max_cycle;Signal;HPM_P1;HPM_P2
2021/03/26 00:00:21;;;;;;;48.78;20.23;;;10.10;59.20;;;;;;4918242;28;20054;-63
2021/03/26 00:02:47;;;;;;;53.80;21.75;;;10.10;59.30;;;;;;4919601;28;20054;-63
2021/03/26 00:05:16;;;;;;;49.30;20.80;;;10.00;59.30;;;;;;4920956;28;20041;-63
2021/03/26 00:07:42;;;;;;;51.28;22.55;;;10.00;59.40;;;;;;4915473;28;20296;-63
2021/03/26 00:10:12;;;;;;;55.60;21.75;;;10.00;60.10;;;;;;4904262;28;20042;-63
2021/03/26 00:12:39;;;;;;;54.65;23.13;;;10.00;59.50;;;;;;4917303;28;20055;-63
2021/03/26 00:15:07;;;;;;;63.50;22.27;;;10.00;59.40;;;;;;4918869;28;20130;-63
2021/03/26 00:17:32;;;;;;;49.63;22.58;;;10.00;59.50;;;;;;4901327;28;20090;-63
2021/03/26 00:20:00;;;;;;;61.78;25.30;;;10.00;59.50;;;;;;4909173;28;20393;-63
2021/03/26 00:22:29;;;;;;;60.63;25.67;;;10.00;59.60;;;;;;4907788;28;20046;-62
2021/03/26 00:24:56;;;;;;;60.60;24.30;;;9.90;59.60;;;;;;4902648;28;20058;-63
2021/03/26 00:27:22;;;;;;;65.22;25.42;;;9.90;59.50;;;;;;4901596;28;20047;-63
2021/03/26 00:29:50;;;;;;;67.88;26.45;;;9.90;59.60;;;;;;4906683;28;20039;-63
2021/03/26 00:32:20;;;;;;;67.70;27.10;;;9.90;59.70;;;;;;4911772;28;20114;-63
2021/03/26 00:34:45;;;;;;;63.50;25.83;;;9.90;60.00;;;;;;4907872;28;20382;-64
2021/03/26 00:37:13;;;;;;;60.50;26.08;;;9.90;59.90;;;;;;4902181;28;20098;-63
2021/03/26 00:39:39;;;;;;;69.85;26.45;;;9.90;59.90;;;;;;4906988;28;20589;-63
2021/03/26 00:42:05;;;;;;;69.63;27.88;;;9.90;59.90;;;;;;4907504;28;20039;-63
2021/03/26 00:44:33;;;;;;;74.43;29.05;;;9.90;60.00;;;;;;4906111;28;20039;-62
2021/03/26 00:47:00;;;;;;;72.70;28.67;;;9.90;60.00;;;;;;4907504;28;20409;-63
2021/03/26 00:49:26;;;;;;;73.15;28.20;;;9.90;60.00;;;;;;4906554;28;20508;-63
2021/03/26 00:51:51;;;;;;;71.30;28.25;;;9.90;60.20;;;;;;4900123;28;20043;-63
2021/03/26 00:54:22;;;;;;;77.78;28.65;;;9.90;60.30;;;;;;4902742;28;20130;-63
2021/03/26 00:56:52;;;;;;;73.90;27.98;;;9.90;60.30;;;;;;4900188;28;20662;-63
2021/03/26 00:59:20;;;;;;;74.88;28.35;;;9.90;60.20;;;;;;4898081;28;20446;-63
2021/03/26 01:01:45;;;;;;;74.40;28.40;;;9.80;60.20;;;;;;4911758;28;20050;-63
2021/03/26 01:04:11;;;;;;;76.03;29.10;;;9.80;60.20;;;;;;4903316;28;20123;-63
2021/03/26 01:06:42;;;;;;;71.10;28.08;;;9.80;60.20;;;;;;4905105;28;20032;-63
2021/03/26 01:09:08;;;;;;;79.95;28.83;;;9.80;60.30;;;;;;4905074;28;20038;-63
2021/03/26 01:11:39;;;;;;;69.63;28.95;;;9.80;60.30;;;;;;4910662;28;20094;-63
2021/03/26 01:14:10;;;;;;;79.20;27.83;;;9.80;60.30;;;;;;4897715;28;20043;-63
2021/03/26 01:16:36;;;;;;;69.95;27.02;;;9.80;60.30;;;;;;4910055;28;20260;-62
2021/03/26 01:19:02;;;;;;;67.65;27.17;;;9.80;60.30;;;;;;4913635;28;21471;-63
2021/03/26 01:21:32;;;;;;;75.35;26.95;;;9.80;60.30;;;;;;4907106;28;20036;-63
2021/03/26 01:23:59;;;;;;;76.68;27.75;;;9.80;60.30;;;;;;4902290;28;20503;-63
2021/03/26 01:26:26;;;;;;;72.00;27.70;;;9.80;60.30;;;;;;4901268;28;20102;-63
2021/03/26 01:28:54;;;;;;;73.68;27.48;;;9.80;60.30;;;;;;4899823;28;30305;-63
2021/03/26 01:31:20;;;;;;;69.20;27.27;;;9.80;60.40;;;;;;4908726;28;20551;-63
2021/03/26 01:33:46;;;;;;;69.10;26.70;;;9.80;60.30;;;;;;4907878;28;20553;-64
2021/03/26 01:36:12;;;;;;;68.90;26.83;;;9.70;60.00;;;;;;4904869;28;20496;-63
2021/03/26 01:38:40;;;;;;;68.13;26.48;;;9.70;60.00;;;;;;4906638;28;20038;-63
2021/03/26 01:41:33;;;;;;;67.35;26.25;;;9.60;60.00;;;;;;4909951;28;20135;-63
2021/03/26 01:43:58;;;;;;;73.43;27.40;;;9.60;60.00;;;;;;4899836;28;20122;-63
2021/03/26 01:46:26;;;;;;;86.40;29.42;;;9.50;60.00;;;;;;4909158;28;20057;-63
2021/03/26 01:48:54;;;;;;;79.20;28.33;;;9.50;60.20;;;;;;4915993;28;20052;-64
2021/03/26 01:51:32;;;;;;;74.05;27.80;;;9.50;60.40;;;;;;4911109;28;21341;-63
2021/03/26 01:53:58;;;;;;;76.53;28.65;;;9.50;60.30;;;;;;4899175;28;20519;-63
2021/03/26 01:56:26;;;;;;;73.88;28.92;;;9.50;60.20;;;;;;4899682;28;20629;-63
2021/03/26 01:58:51;;;;;;;80.78;30.33;;;9.50;60.30;;;;;;4904978;28;20062;-63
2021/03/26 02:01:27;;;;;;;79.07;29.42;;;9.50;60.30;;;;;;4904063;28;20529;-63
2021/03/26 02:03:57;;;;;;;83.75;30.65;;;9.40;60.30;;;;;;4913053;28;20035;-64
2021/03/26 02:06:28;;;;;;;78.90;29.63;;;9.40;60.40;;;;;;4906495;28;20153;-63
2021/03/26 02:09:20;;;;;;;95.63;32.53;;;9.40;60.50;;;;;;4908686;28;20662;-63
2021/03/26 02:12:01;;;;;;;95.13;31.55;;;9.40;60.50;;;;;;4929730;28;20043;-63
2021/03/26 02:14:54;;;;;;;88.22;30.48;;;9.40;60.50;;;;;;4905871;28;20524;-64
2021/03/26 02:17:24;;;;;;;89.88;31.27;;;9.40;59.90;;;;;;4902906;28;20055;-64
2021/03/26 02:19:56;;;;;;;89.55;31.80;;;9.40;60.40;;;;;;4906413;28;20052;-63
2021/03/26 02:22:26;;;;;;;84.47;29.63;;;9.40;60.40;;;;;;4908671;28;20364;-64
2021/03/26 02:24:56;;;;;;;80.20;30.60;;;9.40;60.60;;;;;;4905711;28;20097;-63
2021/03/26 02:27:30;;;;;;;75.22;28.77;;;9.40;60.30;;;;;;4911218;28;21915;-63
2021/03/26 02:29:56;;;;;;;84.50;30.70;;;9.30;60.20;;;;;;4910272;28;20098;-63
2021/03/26 02:32:25;;;;;;;94.35;30.92;;;9.30;60.40;;;;;;4919421;28;20497;-63
2021/03/26 02:35:30;;;;;;;83.75;31.58;;;9.30;60.50;;;;;;4908589;28;20039;-63
2021/03/26 02:38:05;;;;;;;84.45;30.25;;;9.20;60.50;;;;;;4891126;28;20043;-63
2021/03/26 02:40:49;;;;;;;93.03;32.58;;;9.20;60.60;;;;;;4908504;28;20281;-63
2021/03/26 02:43:38;;;;;;;94.22;31.65;;;9.20;60.70;;;;;;4908130;28;20130;-63
2021/03/26 02:46:22;;;;;;;104.25;32.90;;;9.20;60.90;;;;;;4917202;28;20090;-63
2021/03/26 02:49:29;;;;;;;90.85;31.98;;;9.20;60.80;;;;;;4901993;28;20043;-63
2021/03/26 02:52:19;;;;;;;91.65;33.35;;;9.20;60.70;;;;;;4914953;28;20043;-63
2021/03/26 02:55:03;;;;;;;95.00;31.15;;;9.10;60.70;;;;;;4908127;28;20732;-63
2021/03/26 02:57:34;;;;;;;101.28;34.03;;;9.10;60.70;;;;;;4908523;28;20039;-63
2021/03/26 03:00:12;;;;;;;103.10;33.45;;;9.10;60.90;;;;;;4909032;28;20054;-63
2021/03/26 03:02:42;;;;;;;115.05;34.90;;;9.10;61.00;;;;;;4908015;28;20161;-63
2021/03/26 03:05:35;;;;;;;108.88;35.47;;;9.10;61.00;;;;;;4904195;28;20278;-64
2021/03/26 03:08:23;;;;;;;109.93;35.35;;;9.00;61.00;;;;;;4905303;28;20035;-63
2021/03/26 03:10:55;;;;;;;103.55;34.75;;;9.00;61.00;;;;;;4909627;28;20588;-62
2021/03/26 03:13:44;;;;;;;108.22;35.85;;;9.00;61.00;;;;;;4913328;28;20043;-63
2021/03/26 03:16:16;;;;;;;119.15;36.83;;;9.10;61.20;;;;;;4903754;28;20396;-63
2021/03/26 03:18:59;;;;;;;114.32;37.35;;;9.00;61.20;;;;;;4902646;28;20039;-63
2021/03/26 03:21:40;;;;;;;119.07;36.90;;;9.00;61.30;;;;;;4918966;28;20214;-63
2021/03/26 03:24:17;;;;;;;123.18;38.58;;;9.00;61.30;;;;;;4906342;28;20060;-64
2021/03/26 03:26:53;;;;;;;124.18;38.92;;;9.10;61.40;;;;;;4909557;28;20035;-63
2021/03/26 03:29:37;;;;;;;137.65;40.10;;;9.10;61.50;;;;;;4903490;28;20385;-63
2021/03/26 03:32:17;;;;;;;130.27;39.20;;;9.10;61.50;;;;;;4904376;28;20054;-63
2021/03/26 03:34:48;;;;;;;141.18;40.70;;;9.10;61.60;;;;;;4908830;28;20158;-63
2021/03/26 03:37:19;;;;;;;147.18;41.50;;;9.10;61.70;;;;;;4904380;28;20555;-62
2021/03/26 03:40:06;;;;;;;150.27;41.60;;;9.10;61.90;;;;;;4909106;28;20051;-62
2021/03/26 03:42:52;;;;;;;158.57;42.63;;;9.10;61.90;;;;;;4910978;28;20035;-62
2021/03/26 03:45:29;;;;;;;135.35;39.03;;;9.10;62.00;;;;;;4904084;28;20039;-63
2021/03/26 03:48:05;;;;;;;160.23;46.05;;;9.20;62.20;;;;;;4907558;28;20040;-62
2021/03/26 03:50:51;;;;;;;138.65;41.67;;;9.20;62.20;;;;;;4908847;28;20138;-63
2021/03/26 03:53:32;;;;;;;137.20;40.92;;;9.20;62.00;;;;;;4903702;28;20050;-63
2021/03/26 03:56:19;;;;;;;163.95;44.47;;;9.20;61.80;;;;;;4905182;28;20031;-62
2021/03/26 03:58:57;;;;;;;167.20;45.60;;;9.10;61.90;;;;;;4909920;28;20042;-62
2021/03/26 04:01:34;;;;;;;160.32;43.75;;;9.10;62.10;;;;;;4909278;28;20039;-62
2021/03/26 04:04:33;;;;;;;196.38;47.97;;;9.10;62.20;;;;;;4909650;28;20059;-62
2021/03/26 04:07:11;;;;;;;163.38;46.13;;;9.20;62.40;;;;;;4900751;28;20126;-62
2021/03/26 04:09:55;;;;;;;181.02;49.80;;;9.20;62.80;;;;;;4905397;28;20483;-62
2021/03/26 04:12:25;;;;;;;198.40;48.20;;;9.30;63.00;;;;;;4906434;28;20051;-63
2021/03/26 04:15:10;;;;;;;216.88;49.67;;;9.30;63.10;;;;;;4902392;28;20047;-63
2021/03/26 04:18:06;;;;;;;221.00;50.67;;;9.30;63.10;;;;;;4906610;28;20547;-63
2021/03/26 04:20:49;;;;;;;190.00;50.50;;;9.40;63.40;;;;;;4904900;28;20558;-63
2021/03/26 04:23:23;;;;;;;187.25;49.10;;;9.50;63.70;;;;;;4902487;28;20074;-63
2021/03/26 04:26:07;;;;;;;188.13;46.85;;;9.50;63.50;;;;;;4904348;28;20042;-62
2021/03/26 04:28:38;;;;;;;199.57;50.83;;;9.50;63.40;;;;;;4904051;28;20755;-63
2021/03/26 04:31:11;;;;;;;204.25;51.50;;;9.60;63.40;;;;;;4903316;28;20651;-63
2021/03/26 04:33:36;;;;;;;210.50;49.80;;;9.60;63.60;;;;;;4899607;28;21002;-63
2021/03/26 04:36:08;;;;;;;215.38;49.85;;;9.60;63.50;;;;;;4902359;28;20071;-63
2021/03/26 04:38:45;;;;;;;205.50;51.00;;;9.60;63.50;;;;;;4900662;28;20290;-63
2021/03/26 04:41:20;;;;;;;222.10;51.08;;;9.60;63.50;;;;;;4901885;28;20115;-63
2021/03/26 04:44:04;;;;;;;220.60;52.72;;;9.70;63.70;;;;;;4907406;28;20047;-63
2021/03/26 04:46:36;;;;;;;211.65;52.78;;;9.60;63.40;;;;;;4905693;28;22281;-63
2021/03/26 04:49:15;;;;;;;199.60;52.83;;;9.70;63.70;;;;;;4907658;28;20054;-62
2021/03/26 04:52:07;;;;;;;204.15;50.70;;;9.70;63.80;;;;;;4893909;28;20165;-63
2021/03/26 04:54:50;;;;;;;214.77;51.42;;;9.70;63.40;;;;;;4902213;28;20102;-62
2021/03/26 04:57:40;;;;;;;210.63;53.13;;;9.70;63.50;;;;;;4900445;28;20043;-62
2021/03/26 05:00:09;;;;;;;213.35;52.72;;;9.70;63.50;;;;;;4898830;28;20058;-63
2021/03/26 05:02:37;;;;;;;228.27;55.30;;;9.70;63.80;;;;;;4897393;28;20494;-62
2021/03/26 05:05:06;;;;;;;204.13;53.70;;;9.70;64.00;;;;;;4902584;28;20049;-63
2021/03/26 05:07:40;;;;;;;212.02;55.20;;;9.80;64.30;;;;;;4900709;28;20044;-63
2021/03/26 05:10:12;;;;;;;228.23;56.30;;;9.80;64.40;;;;;;4908039;28;20571;-63
2021/03/26 05:12:47;;;;;;;230.07;55.70;;;9.90;64.60;;;;;;4910874;28;20042;-63
2021/03/26 05:15:40;;;;;;;224.07;58.45;;;10.00;64.80;;;;;;4907643;28;20069;-63
2021/03/26 05:18:54;;;;;;;239.73;57.67;;;10.10;64.80;;;;;;4893898;28;20035;-63
2021/03/26 05:21:29;;;;;;;207.80;55.33;;;10.20;64.70;;;;;;4889986;28;22317;-63
2021/03/26 05:24:02;;;;;;;223.10;58.97;;;10.30;64.80;;;;;;4897120;28;20086;-63
2021/03/26 05:26:32;;;;;;;221.13;58.85;;;10.40;65.00;;;;;;4899439;28;20086;-63
2021/03/26 05:29:00;;;;;;;229.98;59.08;;;10.40;65.10;;;;;;4900745;28;20043;-63
2021/03/26 05:31:45;;;;;;;203.57;57.50;;;10.50;65.10;;;;;;4909633;28;20231;-63
2021/03/26 05:34:13;;;;;;;214.70;58.70;;;10.60;65.10;;;;;;4902538;28;20047;-63
2021/03/26 05:37:09;;;;;;;225.02;59.65;;;10.70;65.10;;;;;;4889889;28;20058;-63
2021/03/26 05:39:36;;;;;;;202.35;56.53;;;10.80;65.10;;;;;;4896341;28;20189;-64
2021/03/26 05:42:18;;;;;;;217.10;59.97;;;10.80;65.10;;;;;;4909246;28;20311;-63
2021/03/26 05:44:50;;;;;;;207.40;61.40;;;;;;;;;;4894730;28;20044;-63
2021/03/26 05:47:34;;;;;;;190.98;60.03;;;;;;;;;;4890846;28;20032;-63
2021/03/26 05:50:10;;;;;;;191.48;58.28;;;;;;;;;;4896972;28;20521;-62
2021/03/26 05:52:41;;;;;;;209.52;60.40;;;;;;;;;;4892449;28;20435;-63
2021/03/26 05:55:21;;;;;;;211.85;60.00;;;;;;;;;;4895167;28;20040;-63
2021/03/26 05:58:12;;;;;;;192.40;58.60;;;;;;;;;;4893521;28;20416;-62
2021/03/26 06:01:03;;;;;;;175.05;57.20;;;10.90;65.20;;;;;;4895635;28;20047;-63
2021/03/26 06:03:48;;;;;;;169.23;55.80;;;;;;;;;;4903868;28;20039;-63
2021/03/26 06:06:39;;;;;;;181.10;58.67;;;;;;;;;;4899262;28;20225;-62
2021/03/26 06:09:11;;;;;;;182.45;57.25;;;;;;;;;;4899329;28;20032;-63
2021/03/26 06:11:58;;;;;;;174.80;58.47;;;;;;;;;;4899922;28;20047;-63
2021/03/26 06:14:54;;;;;;;165.45;56.03;;;11.40;64.90;;;;;;4901246;28;20586;-63
2021/03/26 06:17:36;;;;;;;171.40;58.25;;;11.70;65.10;;;;;;4900177;28;20675;-63
2021/03/26 06:20:31;;;;;;;160.32;55.30;;;11.80;65.20;;;;;;4899269;28;20051;-63
2021/03/26 06:23:33;;;;;;;160.70;57.40;;;11.80;65.10;;;;;;4933219;28;20140;-63
2021/03/26 06:26:10;;;;;;;160.35;56.75;;;11.90;65.10;;;;;;4899619;28;20547;-63
2021/03/26 06:29:08;;;;;;;162.30;55.67;;;12.00;65.10;;;;;;4895418;28;20119;-62
2021/03/26 06:31:51;;;;;;;156.48;55.88;;;12.10;65.10;;;;;;4898723;28;20039;-63
2021/03/26 06:34:38;;;;;;;145.45;54.65;;;12.10;64.60;;;;;;4906929;28;20832;-63
2021/03/26 06:37:23;;;;;;;132.32;54.67;;;12.10;64.40;;;;;;4920166;28;20035;-62
2021/03/26 06:40:05;;;;;;;122.25;51.70;;;12.10;64.30;;;;;;4941418;28;20130;-63
2021/03/26 06:43:10;;;;;;;135.60;55.08;;;12.10;64.50;;;;;;4931995;28;20415;-62
2021/03/26 06:45:41;;;;;;;130.13;53.28;;;12.20;65.00;;;;;;4928231;28;20039;-62
2021/03/26 06:48:33;;;;;;;110.43;49.97;;;12.30;65.20;;;;;;4929153;28;20094;-63
2021/03/26 06:51:44;;;;;;;106.35;48.67;;;12.50;65.20;;;;;;4915113;28;20059;-63
2021/03/26 06:54:43;;;;;;;101.93;46.03;;;12.70;65.00;;;;;;4941853;28;20087;-63
2021/03/26 06:57:46;;;;;;;89.85;41.55;;;12.90;64.60;;;;;;4940853;28;20066;-62
2021/03/26 07:00:47;;;;;;;77.45;36.70;;;13.00;64.30;;;;;;4917784;28;20050;-63
2021/03/26 07:03:41;;;;;;;79.30;36.65;;;13.20;64.00;;;;;;4937710;28;20067;-63
2021/03/26 07:06:22;;;;;;;64.20;33.67;;;13.30;63.40;;;;;;4939315;28;20066;-63
2021/03/26 07:09:08;;;;;;;60.88;32.83;;;13.40;62.90;;;;;;4938248;28;21623;-62
2021/03/26 07:11:50;;;;;;;54.63;29.88;;;13.50;63.10;;;;;;4928286;28;20133;-62
2021/03/26 07:14:43;;;;;;;48.13;27.63;;;13.60;63.20;;;;;;4932678;28;20520;-62
2021/03/26 07:17:27;;;;;;;50.65;25.25;;;;;;;;;;4938533;28;20039;-63
2021/03/26 07:19:56;;;;;;;47.50;24.52;;;;;;;;;;4939225;28;20519;-63
2021/03/26 07:23:06;;;;;;;47.63;23.98;;;13.90;63.00;;;;;;4930410;28;20402;-63
2021/03/26 07:25:43;;;;;;;44.83;23.33;;;14.30;59.50;;;;;;4940659;28;20043;-62
2021/03/26 07:28:27;;;;;;;44.08;23.67;;;14.30;59.00;;;;;;4942654;28;20406;-63
2021/03/26 07:31:15;;;;;;;37.45;21.65;;;;;;;;;;4939604;28;20071;-63
2021/03/26 07:33:44;;;;;;;41.55;21.13;;;;;;;;;;4942382;28;20106;-63
2021/03/26 07:36:18;;;;;;;37.60;21.65;;;;;;;;;;4938028;28;20039;-63
2021/03/26 07:38:56;;;;;;;40.53;22.17;;;;;;;;;;4933869;28;20038;-64
2021/03/26 07:41:37;;;;;;;41.58;21.50;;;;;;;;;;4927102;28;20150;-64
2021/03/26 07:44:30;;;;;;;40.83;21.92;;;14.20;58.90;;;;;;4933644;28;20035;-63
2021/03/26 07:47:20;;;;;;;35.83;22.00;;;14.90;58.40;;;;;;4931878;28;20087;-63
2021/03/26 07:49:54;;;;;;;36.30;20.50;;;15.20;58.20;;;;;;4936516;28;20098;-63
2021/03/26 07:52:29;;;;;;;36.80;20.27;;;15.50;57.20;;;;;;4922716;28;20122;-63
2021/03/26 07:55:28;;;;;;;36.80;20.77;;;15.80;56.90;;;;;;4938773;28;20050;-62
2021/03/26 07:58:21;;;;;;;39.60;21.10;;;16.00;56.10;;;;;;4947026;28;20043;-63
2021/03/26 08:01:05;;;;;;;36.50;22.17;;;16.00;55.30;;;;;;4937731;28;20039;-62
2021/03/26 08:03:30;;;;;;;33.95;21.00;;;16.10;55.20;;;;;;4944855;28;20497;-63
2021/03/26 08:06:16;;;;;;;36.00;21.27;;;16.20;55.10;;;;;;4941444;28;20036;-63
2021/03/26 08:09:18;;;;;;;39.63;21.45;;;16.20;54.10;;;;;;4953342;28;20409;-62
2021/03/26 08:12:16;;;;;;;34.42;19.90;;;16.20;54.40;;;;;;4938961;28;20039;-63
2021/03/26 08:15:25;;;;;;;35.13;21.30;;;16.20;54.20;;;;;;4934383;28;20131;-63
2021/03/26 08:18:10;;;;;;;32.65;20.23;;;16.00;54.00;;;;;;4931348;28;20039;-62
2021/03/26 08:20:52;;;;;;;40.38;20.20;;;15.90;53.90;;;;;;4913105;28;20051;-62
2021/03/26 08:23:42;;;;;;;35.38;21.40;;;15.70;53.90;;;;;;4952822;28;20607;-63
2021/03/26 08:26:39;;;;;;;40.08;20.75;;;15.70;54.10;;;;;;4937199;28;20046;-63
2021/03/26 08:29:26;;;;;;;41.78;22.05;;;15.60;54.10;;;;;;4938918;28;20098;-63
2021/03/26 08:32:03;;;;;;;36.03;20.55;;;15.60;54.30;;;;;;4936831;28;20042;-63
2021/03/26 08:34:56;;;;;;;37.35;22.40;;;15.60;54.40;;;;;;4939674;28;20036;-63
2021/03/26 08:37:34;;;;;;;39.47;21.85;;;15.70;54.10;;;;;;4942839;28;20035;-63
2021/03/26 08:40:04;;;;;;;40.75;22.23;;;15.70;54.00;;;;;;4936361;28;20040;-63
2021/03/26 08:42:40;;;;;;;38.75;21.63;;;15.60;53.80;;;;;;4940748;28;20039;-63
2021/03/26 08:45:11;;;;;;;41.75;21.25;;;15.60;54.00;;;;;;4931527;28;20031;-63
2021/03/26 08:48:21;;;;;;;36.20;20.67;;;15.60;54.00;;;;;;4933137;28;20413;-62
2021/03/26 08:51:19;;;;;;;36.90;22.10;;;15.60;54.00;;;;;;4930078;28;20090;-62
2021/03/26 08:53:56;;;;;;;37.33;21.52;;;15.60;54.00;;;;;;4945477;28;20059;-62
2021/03/26 08:56:58;;;;;;;37.28;22.08;;;15.60;54.10;;;;;;4937671;28;20524;-62
2021/03/26 08:59:51;;;;;;;36.50;21.25;;;15.50;54.20;;;;;;4936410;28;20050;-62
2021/03/26 09:02:47;;;;;;;37.25;22.08;;;15.60;54.20;;;;;;4935978;28;20041;-62
2021/03/26 09:05:22;;;;;;;37.40;22.25;;;15.50;53.80;;;;;;4937557;28;20089;-62
2021/03/26 09:08:07;;;;;;;37.08;21.70;;;;;;;;;;4940008;28;20048;-61
2021/03/26 09:10:52;;;;;;;39.22;21.92;;;;;;;;;;4930553;28;20046;-63
2021/03/26 09:13:39;;;;;;;41.78;23.00;;;;;;;;;;4935560;28;20114;-62
2021/03/26 09:16:04;;;;;;;39.65;22.52;;;;;;;;;;4934864;28;20396;-64
2021/03/26 09:18:58;;;;;;;37.55;23.10;;;15.50;54.00;;;;;;4936600;28;20031;-63
2021/03/26 09:21:47;;;;;;;40.88;23.65;;;15.80;54.30;;;;;;4923040;28;20520;-62
2021/03/26 09:24:34;;;;;;;41.22;24.17;;;16.00;54.30;;;;;;4933863;28;20122;-62
2021/03/26 09:27:10;;;;;;;41.15;23.40;;;16.20;54.10;;;;;;4937814;28;20035;-62
2021/03/26 09:30:01;;;;;;;43.25;22.00;;;16.40;53.50;;;;;;4937184;28;20102;-63
2021/03/26 09:32:45;;;;;;;39.33;23.48;;;16.40;53.30;;;;;;4933161;28;22048;-63
2021/03/26 09:35:29;;;;;;;38.35;22.70;;;16.60;53.00;;;;;;4932944;28;20103;-62
2021/03/26 09:38:03;;;;;;;37.67;22.67;;;16.70;52.80;;;;;;4938930;28;20639;-63
2021/03/26 09:40:34;;;;;;;40.53;23.63;;;16.80;52.60;;;;;;4941295;28;20039;-62
2021/03/26 09:43:17;;;;;;;41.15;23.63;;;16.90;52.50;;;;;;4937255;28;20035;-62
2021/03/26 09:46:00;;;;;;;37.13;22.85;;;;;;;;;;4938695;28;20102;-63
2021/03/26 09:48:35;;;;;;;40.35;21.58;;;;;;;;;;4935063;28;20050;-63
2021/03/26 09:51:20;;;;;;;41.33;22.15;;;;;;;;;;4929801;28;20047;-62
2021/03/26 09:53:49;;;;;;;37.60;22.15;;;;;;;;;;4936804;28;20058;-63
2021/03/26 09:56:15;;;;;;;34.08;21.20;;;;;;;;;;4927417;28;20046;-62
2021/03/26 09:59:02;;;;;;;38.33;21.63;;;;;;;;;;4939494;28;20043;-62
2021/03/26 10:01:38;;;;;;;41.80;21.63;;;;;;;;;;4933725;28;20054;-63
2021/03/26 10:04:14;;;;;;;35.80;20.90;;;;;;;;;;4935336;28;20035;-62
2021/03/26 10:06:43;;;;;;;38.45;19.95;;;;;;;;;;4937210;28;20046;-63
2021/03/26 10:09:24;;;;;;;36.78;20.40;;;;;;;;;;4935656;28;20118;-63
2021/03/26 10:11:58;;;;;;;33.83;19.40;;;;;;;;;;4937918;28;20039;-63
2021/03/26 10:14:29;;;;;;;35.95;21.20;;;;;;;;;;4938715;28;20157;-63
2021/03/26 10:17:13;;;;;;;31.75;19.45;;;;;;;;;;4936846;28;20035;-62
2021/03/26 10:19:40;;;;;;;29.38;18.10;;;;;;;;;;4931464;28;20047;-63
2021/03/26 10:22:27;;;;;;;33.28;17.38;;;;;;;;;;4926824;28;20040;-63
2021/03/26 10:24:59;;;;;;;28.33;17.05;;;;;;;;;;4935022;28;20051;-63
2021/03/26 10:27:31;;;;;;;27.17;15.40;;;;;;;;;;4938858;28;20067;-63
2021/03/26 10:30:07;;;;;;;26.42;14.35;;;;;;;;;;4934160;28;20121;-64
2021/03/26 10:32:34;;;;;;;23.42;13.23;;;;;;;;;;4943738;28;20901;-63
2021/03/26 10:35:19;;;;;;;26.95;13.25;;;;;;;;;;4941271;28;20039;-63
2021/03/26 10:38:00;;;;;;;24.00;14.15;;;;;;;;;;4936137;28;20036;-63
2021/03/26 10:40:29;;;;;;;26.65;14.63;;;;;;;;;;4936606;28;20173;-62
2021/03/26 10:42:55;;;;;;;25.30;15.25;;;;;;;;;;4933656;28;20050;-62
2021/03/26 10:45:28;;;;;;;21.42;14.02;;;;;;;;;;4929291;28;20043;-62
2021/03/26 10:47:58;;;;;;;24.05;13.75;;;;;;;;;;4938546;28;20046;-62
2021/03/26 10:50:50;;;;;;;20.73;13.13;;;;;;;;;;4935134;28;20043;-63
2021/03/26 10:53:21;;;;;;;24.83;12.65;;;;;;;;;;4921270;28;20047;-62
2021/03/26 10:55:49;;;;;;;23.85;10.95;;;;;;;;;;4943345;28;20154;-62
2021/03/26 10:58:25;;;;;;;21.27;11.88;;;;;;;;;;4940306;28;20049;-63
2021/03/26 11:00:59;;;;;;;18.00;11.18;;;;;;;;;;4939836;28;20126;-63
2021/03/26 11:03:29;;;;;;;18.27;11.88;;;;;;;;;;4939247;28;20047;-63
2021/03/26 11:05:59;;;;;;;19.33;12.05;;;;;;;;;;4938545;28;20131;-62
2021/03/26 11:08:31;;;;;;;24.90;13.30;;;;;;;;;;4936274;28;20412;-63
2021/03/26 11:10:57;;;;;;;22.70;13.20;;;;;;;;;;4926851;28;20246;-63
2021/03/26 11:13:42;;;;;;;21.95;13.02;;;;;;;;;;4939075;28;20416;-63
2021/03/26 11:16:25;;;;;;;21.25;12.77;;;17.00;52.20;;;;;;4955558;28;20590;-63
2021/03/26 11:18:59;;;;;;;20.05;11.73;;;24.80;35.80;;;;;;4944808;28;20051;-63
2021/03/26 11:21:38;;;;;;;19.48;11.10;;;25.70;34.40;;;;;;4932824;28;20043;-63
2021/03/26 11:24:07;;;;;;;17.85;10.85;;;26.10;33.70;;;;;;4935216;28;20039;-63
2021/03/26 11:26:38;;;;;;;18.20;11.90;;;26.70;32.80;;;;;;4936761;28;20031;-63
2021/03/26 11:29:24;;;;;;;17.45;10.68;;;27.20;30.90;;;;;;4937209;28;20127;-64
2021/03/26 11:31:59;;;;;;;20.83;11.48;;;27.50;30.20;;;;;;4933473;28;20043;-64
2021/03/26 11:34:50;;;;;;;21.42;11.60;;;27.70;29.80;;;;;;4933684;28;20161;-63
2021/03/26 11:37:31;;;;;;;19.05;11.85;;;27.90;29.30;;;;;;4932237;28;20467;-63
2021/03/26 11:40:19;;;;;;;17.00;10.38;;;28.20;28.90;;;;;;4930220;28;20128;-63
2021/03/26 11:43:05;;;;;;;15.57;10.10;;;28.50;28.50;;;;;;4935081;28;20060;-63
2021/03/26 11:45:39;;;;;;;14.95;8.30;;;;;;;;;;4935969;28;20651;-63
2021/03/26 11:48:17;;;;;;;14.77;8.18;;;;;;;;;;4935159;28;20120;-63
2021/03/26 11:50:58;;;;;;;16.95;8.75;;;28.60;27.70;;;;;;4931534;28;20093;-63
2021/03/26 11:53:27;;;;;;;14.40;9.32;;;;;;;;;;4929148;28;20050;-63
2021/03/26 11:56:01;;;;;;;15.45;9.05;;;;;;;;;;4934364;28;20550;-63
2021/03/26 11:58:36;;;;;;;14.80;8.40;;;27.20;28.70;;;;;;4930867;28;20038;-63
2021/03/26 12:01:08;;;;;;;16.75;7.95;;;;;;;;;;4923351;28;20055;-63
2021/03/26 12:03:59;;;;;;;12.18;8.35;;;;;;;;;;4930644;28;20046;-63
2021/03/26 12:06:32;;;;;;;15.32;8.50;;;;;;;;;;4929921;28;20126;-63
2021/03/26 12:09:04;;;;;;;15.15;9.18;;;;;;;;;;4925966;28;20100;-63
2021/03/26 12:11:30;;;;;;;14.35;9.57;;;;;;;;;;4927561;28;20114;-62
2021/03/26 12:14:21;;;;;;;14.00;9.18;;;27.30;28.80;;;;;;4932146;28;20039;-63
2021/03/26 12:17:01;;;;;;;16.50;9.68;;;;;;;;;;4929324;28;20046;-63
2021/03/26 12:19:30;;;;;;;16.75;10.95;;;26.40;28.60;;;;;;4934471;28;20428;-63
2021/03/26 12:21:57;;;;;;;19.75;11.32;;;;;;;;;;4933273;28;20031;-63
2021/03/26 12:24:31;;;;;;;19.40;11.13;;;;;;;;;;4938350;28;20063;-62
2021/03/26 12:26:57;;;;;;;18.10;11.35;;;;;;;;;;4933724;28;20039;-63
2021/03/26 12:29:38;;;;;;;17.75;11.38;;;;;;;;;;4922267;28;20028;-63
2021/03/26 12:32:11;;;;;;;18.45;11.23;;;;;;;;;;4923464;28;20054;-62
2021/03/26 12:34:53;;;;;;;17.95;11.32;;;;;;;;;;4921754;28;20040;-63
2021/03/26 12:37:28;;;;;;;15.90;9.30;;;;;;;;;;4920586;28;20134;-63
2021/03/26 12:40:01;;;;;;;12.48;7.43;;;;;;;;;;4931455;28;20058;-63
2021/03/26 12:42:34;;;;;;;14.95;7.65;;;;;;;;;;4928602;28;20031;-63
2021/03/26 12:45:22;;;;;;;12.00;7.38;;;;;;;;;;4924962;28;20047;-63
2021/03/26 12:47:50;;;;;;;12.00;7.40;;;;;;;;;;4924538;28;21532;-63
2021/03/26 12:50:19;;;;;;;12.85;7.57;;;;;;;;;;4927338;28;20509;-62
2021/03/26 12:53:13;;;;;;;14.10;7.75;;;25.30;29.80;;;;;;4928014;28;20058;-62
2021/03/26 12:55:48;;;;;;;15.30;8.10;;;22.60;33.10;;;;;;4928870;28;20164;-64
2021/03/26 12:58:37;;;;;;;17.13;8.60;;;22.30;34.10;;;;;;4928673;28;20050;-63
2021/03/26 13:01:15;;;;;;;15.98;9.13;;;22.20;33.60;;;;;;4917419;28;20039;-63
2021/03/26 13:04:07;;;;;;;12.65;8.60;;;22.00;34.00;;;;;;4929559;28;20045;-63
2021/03/26 13:06:41;;;;;;;14.40;8.85;;;21.80;34.10;;;;;;4931462;28;20469;-63
2021/03/26 13:09:12;;;;;;;14.95;9.30;;;21.70;34.40;;;;;;4930096;28;20094;-63
2021/03/26 13:11:43;;;;;;;16.63;9.93;;;21.70;34.60;;;;;;4927065;28;20063;-63
2021/03/26 13:14:13;;;;;;;15.35;9.02;;;21.60;34.30;;;;;;4925790;28;20094;-63
2021/03/26 13:16:59;;;;;;;14.65;9.63;;;21.40;34.60;;;;;;4933415;28;20090;-63
2021/03/26 13:19:29;;;;;;;15.68;10.18;;;21.50;35.00;;;;;;4928319;28;20051;-62
2021/03/26 13:22:07;;;;;;;16.17;10.88;;;;;;;;;;4924269;28;20041;-63
2021/03/26 13:24:42;;;;;;;17.08;9.85;;;;;;;;;;4928036;28;20166;-64
2021/03/26 13:27:18;;;;;;;14.73;9.43;;;;;;;;;;4929470;28;20413;-63
2021/03/26 13:30:03;;;;;;;16.17;9.45;;;;;;;;;;4932346;28;20822;-63
2021/03/26 13:32:38;;;;;;;16.17;10.13;;;;;;;;;;4925178;28;20535;-63
2021/03/26 13:35:09;;;;;;;14.82;9.52;;;;;;;;;;4924574;28;20415;-64
2021/03/26 13:37:38;;;;;;;19.60;9.80;;;;;;;;;;4928786;28;20035;-63
2021/03/26 13:40:07;;;;;;;19.98;10.90;;;;;;;;;;4923479;28;20058;-63
2021/03/26 13:42:36;;;;;;;17.52;10.57;;;;;;;;;;4939971;28;20409;-63
2021/03/26 13:45:05;;;;;;;18.02;10.70;;;;;;;;;;4926707;28;20074;-64
2021/03/26 13:47:51;;;;;;;16.67;11.20;;;;;;;;;;4926201;28;20058;-63
2021/03/26 13:50:20;;;;;;;20.92;11.50;;;;;;;;;;4924818;28;20043;-63
2021/03/26 13:52:58;;;;;;;17.42;12.40;;;;;;;;;;4926466;28;20051;-64
2021/03/26 13:55:42;;;;;;;18.50;12.25;;;21.70;35.10;;;;;;4925006;28;20102;-63